createdAt,value
2019-05-09T02:35:56.466Z,11.00
2019-05-09T03:52:08.550Z,9.70
2019-05-09T03:59:49.340Z,8.70
2019-05-09T04:10:19.228Z,8.60
2019-05-09T04:16:20.082Z,8.50
2019-05-09T04:49:02.507Z,8.40
2019-05-09T05:00:48.804Z,8.60
2019-05-09T05:07:10.666Z,8.90
2019-05-09T05:20:40.386Z,9.10
2019-05-09T05:38:21.259Z,9.60
2019-05-09T05:44:10.318Z,9.90
2019-05-09T05:50:14.214Z,10.00
2019-05-09T05:56:21.021Z,10.20
2019-05-09T06:01:32.195Z,10.40
2019-05-09T06:08:41.906Z,10.40
2019-05-09T06:13:56.318Z,10.40
2019-05-09T06:19:12.186Z,10.40
2019-05-09T06:24:47.602Z,10.40
2019-05-09T06:30:52.019Z,10.60
2019-05-09T06:35:52.342Z,11.30
2019-05-09T06:41:14.242Z,12.00
2019-05-09T06:46:54.650Z,11.80
2019-05-09T06:51:58.400Z,12.00
2019-05-09T06:57:02.198Z,12.80
2019-05-09T07:02:13.007Z,13.50
2019-05-09T07:07:18.570Z,14.00
2019-05-09T07:12:43.516Z,14.30
2019-05-09T07:17:42.928Z,14.60
2019-05-09T07:23:01.936Z,14.80
2019-05-09T07:28:00.066Z,14.80
2019-05-09T07:33:10.337Z,15.10
2019-05-09T07:38:09.408Z,15.60
2019-05-09T07:43:11.867Z,15.80
2019-05-09T07:48:41.334Z,15.80
2019-05-09T07:53:32.870Z,15.80
2019-05-09T07:58:44.071Z,15.70
2019-05-09T08:03:45.723Z,15.20
2019-05-09T08:08:50.344Z,15.40
2019-05-09T08:13:48.976Z,16.00
2019-05-09T08:18:44.397Z,16.10
2019-05-09T08:24:40.282Z,15.80
2019-05-09T08:29:34.024Z,15.60
2019-05-09T08:35:09.656Z,15.70
2019-05-09T08:40:39.295Z,15.80
2019-05-09T08:45:39.186Z,15.90
2019-05-09T08:50:42.180Z,15.60
2019-05-09T08:55:43.208Z,15.40
2019-05-09T09:00:50.203Z,15.00
2019-05-09T09:05:45.309Z,14.90
2019-05-09T09:10:44.498Z,15.40
2019-05-09T09:16:18.272Z,15.10
2019-05-09T09:21:13.697Z,14.90
2019-05-09T09:26:18.803Z,14.90
2019-05-09T09:31:13.173Z,15.00
2019-05-09T09:36:09.718Z,15.10
2019-05-09T09:41:00.450Z,16.40
2019-05-09T09:47:12.669Z,16.60
2019-05-09T09:52:14.475Z,16.40
2019-05-09T09:57:49.407Z,16.80
2019-05-09T10:03:48.579Z,16.80
2019-05-09T10:08:44.712Z,17.30
2019-05-09T10:15:29.724Z,17.30
2019-05-09T10:20:23.797Z,17.90
2019-05-09T10:31:30.336Z,17.40
2019-05-09T10:40:29.939Z,18.00
2019-05-09T10:47:09.409Z,17.80
2019-05-09T10:52:02.344Z,17.20
2019-05-09T10:56:52.506Z,16.90
2019-05-09T11:01:44.243Z,16.40
2019-05-09T11:07:02.031Z,16.30
2019-05-09T11:11:51.560Z,16.40
2019-05-09T11:22:00.342Z,16.00
2019-05-09T11:28:08.065Z,15.60
2019-05-09T11:33:00.734Z,15.60
2019-05-09T11:37:51.426Z,15.40
2019-05-09T11:42:44.202Z,15.40
2019-05-09T11:49:03.517Z,15.50
2019-05-09T11:53:50.574Z,15.70
2019-05-09T11:58:43.067Z,15.90
2019-05-09T12:06:03.368Z,16.30
2019-05-09T12:10:48.646Z,17.30
2019-05-09T12:16:04.983Z,17.40
2019-05-09T12:20:55.083Z,17.30
2019-05-09T12:25:49.735Z,17.50
2019-05-09T12:30:42.559Z,17.60
2019-05-09T12:35:43.931Z,17.70
2019-05-09T12:40:40.240Z,17.70
2019-05-09T12:45:32.841Z,17.50
2019-05-09T12:50:29.194Z,17.40
2019-05-09T12:55:20.325Z,17.20
2019-05-09T13:00:12.848Z,17.00
2019-05-09T13:05:04.890Z,16.70
2019-05-09T13:10:00.170Z,16.50
2019-05-09T13:14:52.799Z,16.30
2019-05-09T13:19:48.744Z,16.10
2019-05-09T13:24:48.537Z,16.00
2019-05-09T13:29:39.525Z,15.90
2019-05-09T13:35:19.753Z,16.10
2019-05-09T13:42:20.630Z,16.30
2019-05-09T13:47:18.287Z,17.10
2019-05-09T13:54:29.652Z,17.50
2019-05-09T13:59:23.658Z,17.30
2019-05-09T14:04:40.611Z,17.20
2019-05-09T14:09:30.385Z,16.80
2019-05-09T14:14:22.186Z,16.70
2019-05-09T14:19:35.715Z,16.50
2019-05-09T14:24:37.279Z,16.30
2019-05-09T14:29:32.708Z,16.10
2019-05-09T14:34:23.624Z,16.00
2019-05-09T14:39:19.551Z,15.90
2019-05-09T14:44:11.370Z,15.90
2019-05-09T14:49:03.941Z,16.10
2019-05-09T14:54:00.323Z,16.30
2019-05-09T14:59:01.895Z,17.00
2019-05-09T15:03:54.067Z,17.60
2019-05-09T15:08:49.093Z,17.50
2019-05-09T15:13:40.828Z,17.80
2019-05-09T15:18:41.727Z,17.40
2019-05-09T15:23:33.039Z,17.00
2019-05-09T15:28:34.194Z,16.70
2019-05-09T15:34:43.213Z,16.60
2019-05-09T15:39:39.480Z,16.50
2019-05-09T15:45:13.570Z,16.50
2019-05-09T15:50:18.617Z,16.50
2019-05-09T15:55:12.184Z,16.70
2019-05-09T16:00:04.032Z,16.80
2019-05-09T16:04:58.798Z,16.70
2019-05-09T16:09:50.888Z,16.70
2019-05-09T16:14:44.216Z,16.60
2019-05-09T16:19:38.636Z,16.40
2019-05-09T16:24:30.425Z,16.30
2019-05-09T16:29:40.608Z,16.20
2019-05-09T16:34:30.655Z,16.20
2019-05-09T16:39:21.927Z,16.20
2019-05-09T16:44:19.706Z,16.10
2019-05-09T16:49:16.634Z,16.10
2019-05-09T16:54:23.226Z,16.10
2019-05-09T16:59:31.648Z,16.20
2019-05-09T17:04:39.587Z,16.10
2019-05-09T17:09:29.452Z,16.10
2019-05-09T17:14:23.377Z,16.10
2019-05-09T17:19:28.695Z,16.00
2019-05-09T17:44:19.021Z,15.80
2019-05-09T17:49:17.925Z,15.70
2019-05-09T17:54:15.345Z,15.70
2019-05-09T17:59:18.806Z,15.70
2019-05-09T18:04:13.226Z,15.70
2019-05-09T18:09:19.910Z,15.50
2019-05-09T18:14:32.213Z,15.50
2019-05-09T18:19:31.190Z,15.40
